Time;durP1;ratioP1;P1;durP2;ratioP2;P2;SDS_P1;SDS_P2;PMS_P1;PMS_P2;Temp;Humidity;BMP_temperature;BMP_pressure;BME280_temperature;BME280_humidity;BME280_pressure;Samples;Min_cycle;Max_cycle;Signal;HPM_P1;HPM_P2
2024/03/18 00:02:07;;;;;;;;;;;;;;;;;;5094180;28;19908;-73
2024/03/18 00:04:33;;;;;;;;;;;;;;;;;;5093718;28;20298;-73
2024/03/18 00:06:59;;;;;;;;;;;;;;;;;;5094169;28;19953;-73
2024/03/18 00:09:25;;;;;;;;;;;;;;;;;;5075534;28;19908;-73
2024/03/18 00:11:52;;;;;;;;;;;;;;;;;;5075969;28;19915;-73
2024/03/18 00:14:18;;;;;;;;;;;;;;;;;;5094030;28;19962;-73
2024/03/18 00:16:43;;;;;;;;;;;;;;;;;;5093557;28;19912;-73
2024/03/18 00:19:09;;;;;;;;;;;;;;;;;;5093970;28;19909;-73
2024/03/18 00:21:38;;;;;;;;;;;;;;;;;;5094020;28;19908;-71
2024/03/18 00:24:04;;;;;;;;;;;;;;;;;;5093254;28;19923;-71
2024/03/18 00:26:30;;;;;;;;;;;;;;;;;;5075903;28;19915;-71
2024/03/18 00:28:56;;;;;;;;;;;;;;;;;;5093812;28;20371;-72
2024/03/18 00:31:22;;;;;;;;;;;;;;;;;;5075450;28;20324;-72
2024/03/18 00:33:48;;;;;;;;;;;;;;;;;;5075755;28;20318;-71
2024/03/18 00:36:13;;;;;;;;;;;;;;;;;;5093860;28;19912;-72
2024/03/18 00:38:41;;;;;;;;;;;;;;;;;;5093341;28;19915;-72
2024/03/18 00:43:52;;;;;;;;;;;;;;;;;;5093692;28;19970;-72
2024/03/18 00:46:18;;;;;;;;;;;;;;;;;;5095582;28;19908;-72
2024/03/18 00:48:44;;;;;;;;;;;;;;;;;;5079625;28;19915;-72
2024/03/18 00:51:11;;;;;;;;;;;;;;;;;;5097788;28;19908;-72
2024/03/18 00:53:37;;;;;;;;;;;;;;;;;;5097370;28;19929;-71
2024/03/18 00:56:03;;;;;;;;;;;;;;;;;;5079488;28;19908;-71
2024/03/18 00:58:29;;;;;;;;;;;;;;;;;;5079022;28;20360;-71
2024/03/18 01:00:55;;;;;;;;;;;;;;;;;;5097555;28;20378;-71
2024/03/18 01:03:21;;;;;;;;;;;;;;;;;;5097522;28;19909;-71
2024/03/18 01:05:47;;;;;;;;;;;;;;;;;;5097153;28;19920;-72
2024/03/18 01:08:13;;;;;;;;;;;;;;;;;;5097674;28;20379;-72
2024/03/18 01:10:39;;;;;;;;;;;;;;;;;;5097516;28;20291;-71
2024/03/18 01:13:07;;;;;;;;;;;;;;;;;;5096986;28;20028;-72
2024/03/18 01:15:33;;;;;;;;;;;;;;;;;;5097357;28;19916;-72
2024/03/18 01:17:59;;;;;;;;;;;;;;;;;;5097248;28;19915;-72
2024/03/18 01:20:25;;;;;;;;;;;;;;;;;;5096866;28;19947;-72
2024/03/18 01:22:51;;;;;;;;;;;;;;;;;;5097217;28;19942;-72
2024/03/18 01:25:17;;;;;;;;;;;;;;;;;;5096885;28;19920;-72
2024/03/18 01:27:46;;;;;;;;;;;;;;;;;;5096731;28;19978;-72
2024/03/18 01:30:12;;;;;;;;;;;;;;;;;;5097092;28;19908;-72
2024/03/18 01:32:38;;;;;;;;;;;;;;;;;;5097030;28;19915;-72
2024/03/18 01:35:04;;;;;;;;;;;;;;;;;;5096576;28;19908;-72
2024/03/18 01:37:30;;;;;;;;;;;;;;;;;;5097289;28;19908;-72
2024/03/18 01:39:56;;;;;;;;;;;;;;;;;;5096849;28;20429;-72
2024/03/18 01:42:22;;;;;;;;;;;;;;;;;;5096422;28;19931;-72
2024/03/18 01:44:48;;;;;;;;;;;;;;;;;;5096662;28;19916;-72
2024/03/18 01:47:14;;;;;;;;;;;;;;;;;;5078612;28;19908;-72
2024/03/18 01:49:40;;;;;;;;;;;;;;;;;;5096336;28;19916;-72
2024/03/18 01:52:06;;;;;;;;;;;;;;;;;;5096920;28;19947;-72
2024/03/18 01:54:32;;;;;;;;;;;;;;;;;;5096633;28;19916;-72
2024/03/18 01:56:58;;;;;;;;;;;;;;;;;;5095614;28;19908;-71
2024/03/18 01:59:24;;;;;;;;;;;;;;;;;;5096687;28;19951;-71
2024/03/18 02:01:50;;;;;;;;;;;;;;;;;;5077889;28;19908;-72
2024/03/18 02:04:16;;;;;;;;;;;;;;;;;;5078104;28;19923;-72
2024/03/18 02:06:42;;;;;;;;;;;;;;;;;;5078240;28;19908;-72
2024/03/18 02:09:09;;;;;;;;;;;;;;;;;;5095894;28;20382;-72
2024/03/18 02:11:35;;;;;;;;;;;;;;;;;;5096349;28;19908;-72
2024/03/18 02:14:01;;;;;;;;;;;;;;;;;;5096218;28;19950;-72
2024/03/18 02:16:27;;;;;;;;;;;;;;;;;;5095736;28;19954;-72
2024/03/18 02:18:53;;;;;;;;;;;;;;;;;;5078042;28;20409;-72
2024/03/18 02:21:19;;;;;;;;;;;;;;;;;;5096009;28;19962;-72
2024/03/18 02:23:45;;;;;;;;;;;;;;;;;;5077193;28;20395;-72
2024/03/18 02:26:11;;;;;;;;;;;;;;;;;;5096221;28;20379;-72
2024/03/18 02:28:36;;;;;;;;;;;;;;;;;;5095876;28;19969;-72
2024/03/18 02:31:02;;;;;;;;;;;;;;;;;;5095530;28;19991;-72
2024/03/18 02:33:28;;;;;;;;;;;;;;;;;;5095826;28;19908;-72
2024/03/18 02:35:54;;;;;;;;;;;;;;;;;;5095801;28;19935;-72
2024/03/18 02:38:20;;;;;;;;;;;;;;;;;;5095570;28;19919;-72
2024/03/18 02:40:46;;;;;;;;;;;;;;;;;;5096099;28;19908;-71
2024/03/18 02:43:12;;;;;;;;;;;;;;;;;;5095562;28;20361;-72
2024/03/18 02:45:38;;;;;;;;;;;;;;;;;;5095243;28;20292;-72
2024/03/18 02:48:04;;;;;;;;;;;;;;;;;;5095512;28;19951;-72
2024/03/18 02:50:30;;;;;;;;;;;;;;;;;;5095530;28;19908;-72
2024/03/18 02:52:56;;;;;;;;;;;;;;;;;;5095023;28;19908;-71
2024/03/18 02:55:22;;;;;;;;;;;;;;;;;;5095370;28;19915;-71
2024/03/18 02:57:48;;;;;;;;;;;;;;;;;;5095915;28;19908;-71
2024/03/18 03:00:14;;;;;;;;;;;;;;;;;;5094862;28;19912;-71
2024/03/18 03:02:40;;;;;;;;;;;;;;;;;;5095273;28;19916;-72
2024/03/18 03:05:06;;;;;;;;;;;;;;;;;;5094713;28;19939;-72
2024/03/18 03:07:32;;;;;;;;;;;;;;;;;;5094880;28;19965;-72
2024/03/18 03:09:58;;;;;;;;;;;;;;;;;;5094650;28;20002;-72
2024/03/18 03:12:26;;;;;;;;;;;;;;;;;;5094744;28;20423;-72
2024/03/18 03:14:52;;;;;;;;;;;;;;;;;;5095127;28;19908;-72
2024/03/18 03:17:18;;;;;;;;;;;;;;;;;;5094960;28;19908;-72
2024/03/18 03:19:44;;;;;;;;;;;;;;;;;;5094454;28;19908;-72
2024/03/18 03:22:11;;;;;;;;;;;;;;;;;;5094931;28;19908;-71
2024/03/18 03:24:37;;;;;;;;;;;;;;;;;;5094572;28;19920;-72
2024/03/18 03:27:03;;;;;;;;;;;;;;;;;;5094573;28;19931;-72
2024/03/18 03:29:29;;;;;;;;;;;;;;;;;;5076553;28;19908;-72
2024/03/18 03:31:55;;;;;;;;;;;;;;;;;;5094782;28;19930;-72
2024/03/18 03:34:21;;;;;;;;;;;;;;;;;;5094303;28;19908;-72
2024/03/18 03:36:47;;;;;;;;;;;;;;;;;;5094681;28;19931;-73
2024/03/18 03:39:13;;;;;;;;;;;;;;;;;;5094501;28;19931;-73
2024/03/18 03:41:39;;;;;;;;;;;;;;;;;;5094172;28;20314;-74
2024/03/18 03:44:05;;;;;;;;;;;;;;;;;;5094971;28;19965;-73
2024/03/18 03:46:31;;;;;;;;;;;;;;;;;;5094545;28;19916;-73
2024/03/18 03:48:57;;;;;;;;;;;;;;;;;;5094063;28;19916;-72
2024/03/18 03:51:23;;;;;;;;;;;;;;;;;;5094392;28;19935;-73
2024/03/18 03:53:50;;;;;;;;;;;;;;;;;;5076238;28;19915;-73
2024/03/18 03:56:16;;;;;;;;;;;;;;;;;;5093867;28;19908;-72
2024/03/18 03:58:46;;;;;;;;;;;;;;;;;;5094262;28;19915;-72
2024/03/18 04:01:12;;;;;;;;;;;;;;;;;;5094555;28;19908;-72
2024/03/18 04:03:38;;;;;;;;;;;;;;;;;;5093820;28;19908;-72
2024/03/18 04:06:04;;;;;;;;;;;;;;;;;;5094255;28;19912;-73
2024/03/18 04:08:30;;;;;;;;;;;;;;;;;;5093756;28;19915;-73
2024/03/18 04:10:56;;;;;;;;;;;;;;;;;;5094168;28;19948;-73
2024/03/18 04:13:22;;;;;;;;;;;;;;;;;;5094179;28;19908;-72
2024/03/18 04:15:49;;;;;;;;;;;;;;;;;;5093728;28;19908;-72
2024/03/18 04:18:16;;;;;;;;;;;;;;;;;;5094129;28;20302;-72
2024/03/18 04:20:43;;;;;;;;;;;;;;;;;;5093797;28;19950;-73
2024/03/18 04:23:09;;;;;;;;;;;;;;;;;;5093285;28;19908;-72
2024/03/18 04:25:35;;;;;;;;;;;;;;;;;;5094477;28;20383;-72
2024/03/18 04:28:07;;;;;;;;;;;;;;;;;;5093900;28;19915;-72
2024/03/18 04:30:33;;;;;;;;;;;;;;;;;;5075389;28;19908;-72
2024/03/18 04:32:58;;;;;;;;;;;;;;;;;;5093840;28;19908;-72
2024/03/18 04:35:24;;;;;;;;;;;;;;;;;;5093813;28;19921;-72
2024/03/18 04:37:55;;;;;;;;;;;;;;;;;;5075288;28;19915;-72
2024/03/18 04:40:21;;;;;;;;;;;;;;;;;;5094053;28;20284;-73
2024/03/18 04:42:47;;;;;;;;;;;;;;;;;;5093785;28;19908;-73
2024/03/18 04:45:13;;;;;;;;;;;;;;;;;;5093262;28;19924;-73
2024/03/18 04:47:39;;;;;;;;;;;;;;;;;;5093781;28;19915;-73
2024/03/18 04:50:05;;;;;;;;;;;;;;;;;;5093707;28;19953;-73
2024/03/18 04:52:31;;;;;;;;;;;;;;;;;;5093247;28;20002;-73
2024/03/18 04:54:57;;;;;;;;;;;;;;;;;;5093848;28;19908;-73
2024/03/18 04:57:23;;;;;;;;;;;;;;;;;;5093602;28;19919;-73
2024/03/18 04:59:49;;;;;;;;;;;;;;;;;;5093243;28;19908;-72
2024/03/18 05:02:15;;;;;;;;;;;;;;;;;;5093739;28;20394;-73
2024/03/18 05:04:41;;;;;;;;;;;;;;;;;;5093122;28;20315;-72
2024/03/18 05:07:07;;;;;;;;;;;;;;;;;;5093665;28;19912;-73
2024/03/18 05:09:34;;;;;;;;;;;;;;;;;;5093496;28;19908;-73
2024/03/18 05:12:00;;;;;;;;;;;;;;;;;;5093108;28;19912;-73
2024/03/18 05:14:26;;;;;;;;;;;;;;;;;;5093400;28;19915;-72
2024/03/18 05:16:52;;;;;;;;;;;;;;;;;;5093458;28;19951;-72
2024/03/18 05:19:18;;;;;;;;;;;;;;;;;;5093060;28;19908;-72
2024/03/18 05:21:43;;;;;;;;;;;;;;;;;;5093402;28;19965;-72
2024/03/18 05:24:09;;;;;;;;;;;;;;;;;;5093117;28;19920;-72
2024/03/18 05:26:35;;;;;;;;;;;;;;;;;;5093044;28;19908;-72
2024/03/18 05:29:01;;;;;;;;;;;;;;;;;;5093341;28;19908;-72
2024/03/18 05:31:27;;;;;;;;;;;;;;;;;;5075989;28;20013;-72
2024/03/18 05:33:53;;;;;;;;;;;;;;;;;;5096180;28;19916;-73
2024/03/18 05:36:20;;;;;;;;;;;;;;;;;;5077983;28;19916;-73
2024/03/18 05:38:46;;;;;;;;;;;;;;;;;;5095771;28;19951;-73
2024/03/18 05:41:12;;;;;;;;;;;;;;;;;;5096382;28;19962;-72
2024/03/18 05:43:38;;;;;;;;;;;;;;;;;;5096478;28;19912;-73
2024/03/18 05:46:04;;;;;;;;;;;;;;;;;;5094896;28;19957;-72
2024/03/18 05:48:30;;;;;;;;;;;;;;;;;;5096410;28;19908;-72
2024/03/18 05:50:56;;;;;;;;;;;;;;;;;;5096710;28;19968;-72
2024/03/18 05:53:22;;;;;;;;;;;;;;;;;;5078013;28;20310;-72
2024/03/18 05:55:48;;;;;;;;;;;;;;;;;;5094408;28;19908;-72
2024/03/18 05:58:14;;;;;;;;;;;;;;;;;;5095634;28;19912;-72
2024/03/18 06:00:40;;;;;;;;;;;;;;;;;;5095877;28;19961;-72
2024/03/18 06:03:06;;;;;;;;;;;;;;;;;;5095554;28;19908;-72
2024/03/18 06:05:32;;;;;;;;;;;;;;;;;;5095820;28;19916;-72
2024/03/18 06:07:58;;;;;;;;;;;;;;;;;;5095432;28;20021;-72
2024/03/18 06:10:24;;;;;;;;;;;;;;;;;;5078126;28;19942;-72
2024/03/18 06:12:50;;;;;;;;;;;;;;;;;;5096127;28;20409;-72
2024/03/18 06:15:16;;;;;;;;;;;;;;;;;;5093360;28;20163;-71
2024/03/18 06:17:42;;;;;;;;;;;;;;;;;;5094845;28;19919;-71
2024/03/18 06:20:11;;;;;;;;;;;;;;;;;;5095445;28;19912;-71
2024/03/18 06:22:37;;;;;;;;;;;;;;;;;;5094892;28;19952;-72
2024/03/18 06:27:48;;;;;;;;;;;;;;;;;;5094736;28;19958;-71
2024/03/18 06:30:17;;;;;;;;;;;;;;;;;;5094311;28;19912;-69
2024/03/18 06:32:43;;;;;;;;;;;;;;;;;;5095376;28;19919;-70
2024/03/18 06:35:09;;;;;;;;;;;;;;;;;;5077029;28;19912;-69
2024/03/18 06:37:36;;;;;;;;;;;;;;;;;;5094334;28;19912;-69
2024/03/18 06:40:02;;;;;;;;;;;;;;;;;;5094681;28;19912;-69
2024/03/18 06:42:28;;;;;;;;;;;;;;;;;;5095054;28;20318;-69
2024/03/18 06:44:54;;;;;;;;;;;;;;;;;;5094692;28;19924;-69
2024/03/18 06:47:20;;;;;;;;;;;;;;;;;;5094950;28;19912;-70
2024/03/18 06:49:46;;;;;;;;;;;;;;;;;;5094375;28;20376;-69
2024/03/18 06:52:12;;;;;;;;;;;;;;;;;;5093995;28;19912;-69
2024/03/18 06:54:38;;;;;;;;;;;;;;;;;;5094356;28;19919;-70
2024/03/18 06:57:04;;;;;;;;;;;;;;;;;;5093643;28;19964;-69
2024/03/18 06:59:30;;;;;;;;;;;;;;;;;;5091863;28;20336;-69
2024/03/18 07:01:56;;;;;;;;;;;;;;;;;;5081734;28;20011;-68
2024/03/18 07:04:22;;;;;;;;;;;;;;;;;;5087817;28;20351;-67
2024/03/18 07:06:48;;;;;;;;;;;;;;;;;;5088795;28;20359;-67
2024/03/18 07:09:15;;;;;;;;;;;;;;;;;;5089581;28;20342;-68
2024/03/18 07:11:41;;;;;;;;;;;;;;;;;;5072904;28;19958;-69
2024/03/18 07:14:07;;;;;;;;;;;;;;;;;;5085468;28;19967;-70
2024/03/18 07:16:34;;;;;;;;;;;;;;;;;;5092163;28;20376;-69
2024/03/18 07:19:00;;;;;;;;;;;;;;;;;;5074718;28;19955;-68
2024/03/18 07:21:26;;;;;;;;;;;;;;;;;;5093883;28;19917;-69
2024/03/18 07:23:52;;;;;;;;;;;;;;;;;;5075078;28;19924;-69
2024/03/18 07:26:19;;;;;;;;;;;;;;;;;;5092983;28;19916;-70
2024/03/18 07:28:46;;;;;;;;;;;;;;;;;;5092081;28;19916;-69
2024/03/18 07:31:13;;;;;;;;;;;;;;;;;;5069988;28;19912;-70
2024/03/18 07:33:39;;;;;;;;;;;;;;;;;;5092929;28;20348;-69
2024/03/18 07:36:05;;;;;;;;;;;;;;;;;;5093021;28;19915;-69
2024/03/18 07:38:31;;;;;;;;;;;;;;;;;;5062590;28;19912;-69
2024/03/18 07:40:57;;;;;;;;;;;;;;;;;;5090823;28;20384;-68
2024/03/18 07:43:23;;;;;;;;;;;;;;;;;;5092062;28;19916;-69
2024/03/18 07:45:49;;;;;;;;;;;;;;;;;;5088860;28;20469;-67
2024/03/18 07:48:15;;;;;;;;;;;;;;;;;;5092242;28;19908;-68
2024/03/18 07:50:41;;;;;;;;;;;;;;;;;;5061369;28;19912;-68
2024/03/18 07:53:07;;;;;;;;;;;;;;;;;;5086079;28;20551;-68
2024/03/18 07:55:33;;;;;;;;;;;;;;;;;;5089623;28;20394;-68
2024/03/18 07:57:59;;;;;;;;;;;;;;;;;;5092459;28;19915;-68
2024/03/18 08:00:26;;;;;;;;;;;;;;;;;;5087165;28;20364;-67
2024/03/18 08:02:51;;;;;;;;;;;;;;;;;;5083902;28;19955;-68
2024/03/18 08:05:17;;;;;;;;;;;;;;;;;;5105529;28;20053;-68
2024/03/18 08:07:47;;;;;;;;;;;;;;;;;;5090415;28;19912;-68
2024/03/18 08:10:13;;;;;;;;;;;;;;;;;;5090644;28;20325;-69
2024/03/18 08:12:39;;;;;;;;;;;;;;;;;;5073354;28;20046;-69
2024/03/18 08:15:05;;;;;;;;;;;;;;;;;;5070581;28;19909;-69
2024/03/18 08:17:31;;;;;;;;;;;;;;;;;;5086635;28;19916;-68
2024/03/18 08:19:59;;;;;;;;;;;;;;;;;;5078091;28;19919;-68
2024/03/18 08:22:28;;;;;;;;;;;;;;;;;;5088016;28;20264;-70
2024/03/18 08:24:54;;;;;;;;;;;;;;;;;;5087307;28;19985;-69
2024/03/18 08:27:20;;;;;;;;;;;;;;;;;;5090332;28;20512;-69
2024/03/18 08:29:47;;;;;;;;;;;;;;;;;;5091067;28;19908;-68
2024/03/18 08:32:13;;;;;;;;;;;;;;;;;;5090296;28;19924;-68
2024/03/18 08:34:39;;;;;;;;;;;;;;;;;;5079146;28;19920;-72
2024/03/18 08:37:05;;;;;;;;;;;;;;;;;;5063564;28;20306;-70
2024/03/18 08:39:31;;;;;;;;;;;;;;;;;;5083092;28;19921;-70
2024/03/18 08:41:57;;;;;;;;;;;;;;;;;;5082384;28;20010;-69
2024/03/18 08:44:23;;;;;;;;;;;;;;;;;;5072375;28;20346;-69
2024/03/18 08:46:49;;;;;;;;;;;;;;;;;;5054664;28;19916;-68
2024/03/18 08:49:19;;;;;;;;;;;;;;;;;;5063626;28;19909;-70
2024/03/18 08:51:45;;;;;;;;;;;;;;;;;;5052999;28;19908;-67
2024/03/18 08:54:14;;;;;;;;;;;;;;;;;;5083579;28;19918;-69
2024/03/18 08:56:40;;;;;;;;;;;;;;;;;;5084454;28;19954;-69
2024/03/18 08:59:06;;;;;;;;;;;;;;;;;;5078730;28;19947;-71
2024/03/18 09:01:32;;;;;;;;;;;;;;;;;;5072938;28;21658;-69
2024/03/18 09:03:59;;;;;;;;;;;;;;;;;;5083801;28;20014;-73
2024/03/18 09:06:26;;;;;;;;;;;;;;;;;;5065776;28;20018;-72
2024/03/18 09:08:52;;;;;;;;;;;;;;;;;;5079735;28;20303;-70
2024/03/18 09:11:20;;;;;;;;;;;;;;;;;;5091373;28;19912;-69
2024/03/18 09:13:48;;;;;;;;;;;;;;;;;;5090258;28;20003;-70
2024/03/18 09:16:51;;;;;;;;;;;;;;;;;;5145694;27;19926;-69
2024/03/18 09:21:22;;;;;;;;;;;;;;;;;;5087816;27;19917;-70
2024/03/18 09:23:48;;;;;;;;;;;;;;;;;;5072168;28;19954;-68
2024/03/18 09:27:06;;;;;;;;;;;;;;;;;;5146898;27;20322;-69
2024/03/18 09:30:16;;;;;;;;;;;;;;;;;;5090997;27;2212887;-67
2024/03/18 09:34:04;;;;;;;;;;;;;;;;;;5122370;27;20393;-68
2024/03/18 09:39:23;;;;;;;;;;;;;;;;;;5107266;27;19923;-68
2024/03/18 09:41:49;;;;;;;;;;;;;;;;;;5107672;28;19912;-68
2024/03/18 09:51:26;;;;;;;;;;;;;;;;;;5103196;27;19930;-70
2024/03/18 09:56:10;;;;;;;;;;;;;;;;;;5148034;27;19919;-69
2024/03/18 09:58:38;;;;;;;;;;;;;;;;;;5147157;27;19911;-68
2024/03/18 10:01:04;;;;;;;;;;;;;;;;;;5105971;27;20368;-68
2024/03/18 10:05:23;;;;;;;;;;;;;;;;;;4978305;27;4962883;-68
2024/03/18 10:08:32;;;;;;;;;;;;;;;;;;4941602;27;5962591;-69
2024/03/18 10:12:55;;;;;;;;;;;;;;;;;;5090996;27;2270796;-70
2024/03/18 10:15:21;;;;;;;;;;;;;;;;;;5151245;27;20010;-69
2024/03/18 10:17:47;;;;;;;;;;;;;;;;;;5169790;27;19910;-69
2024/03/18 10:20:13;;;;;;;;;;;;;;;;;;5152073;27;19967;-69
2024/03/18 10:22:39;;;;;;;;;;;;;;;;;;5167161;27;19918;-69
2024/03/18 10:30:41;;;;;;;;;;;;;;;;;;5084810;27;20308;-68
2024/03/18 10:33:30;;;;;;;;;;;;;;;;;;5110087;27;19916;-69
2024/03/18 10:35:56;;;;;;;;;;;;;;;;;;5101671;28;19919;-71
2024/03/18 10:39:41;;;;;;;;;;;;;;;;;;5087999;27;20027;-69
2024/03/18 10:50:15;;;;;;;;;;;;;;;;;;5075261;27;19927;-74
2024/03/18 10:54:03;;;;;;;;;;;;;;;;;;5106570;27;20383;-71
2024/03/18 10:57:53;;;;;;;;;;;;;;;;;;4410911;27;19906179;-72
2024/03/18 11:00:18;;;;;;;;;;;;;;;;;;5108711;28;20002;-70
2024/03/18 11:02:44;;;;;;;;;;;;;;;;;;5108601;28;19916;-71
2024/03/18 11:08:59;;;;;;;;;;;;;;;;;;5110014;27;20371;-71
2024/03/18 11:11:32;;;;;;;;;;;;;;;;;;5088879;27;19921;-71
2024/03/18 11:13:58;;;;;;;;;;;;;;;;;;5088880;28;20372;-71
2024/03/18 11:16:24;;;;;;;;;;;;;;;;;;5088276;28;19916;-71
2024/03/18 11:18:50;;;;;;;;;;;;;;;;;;5087195;28;19908;-73
2024/03/18 11:24:32;;;;;;;;;;;;;;;;;;5142203;27;19926;-71
2024/03/18 11:28:21;;;;;;;;;;;;;;;;;;5109446;27;21109;-70
2024/03/18 11:31:14;;;;;;;;;;;;;;;;;;5109053;27;20344;-71
2024/03/18 11:33:41;;;;;;;;;;;;;;;;;;5108036;28;20105;-69
2024/03/18 11:36:10;;;;;;;;;;;;;;;;;;5107235;28;19908;-71
2024/03/18 11:39:39;;;;;;;;;;;;;;;;;;5108469;27;19943;-69
2024/03/18 11:43:49;;;;;;;;;;;;;;;;;;5085665;27;19920;-71
2024/03/18 11:50:42;;;;;;;;;;;;;;;;;;5110716;27;19912;-71
2024/03/18 11:55:12;;;;;;;;;;;;;;;;;;5110825;27;19916;-70
2024/03/18 11:57:38;;;;;;;;;;;;;;;;;;5110691;28;19912;-69
2024/03/18 12:00:11;;;;;;;;;;;;;;;;;;5110633;28;19999;-69
2024/03/18 12:02:37;;;;;;;;;;;;;;;;;;5111193;28;19908;-70
2024/03/18 12:05:03;;;;;;;;;;;;;;;;;;5110805;28;20265;-72
2024/03/18 12:07:29;;;;;;;;;;;;;;;;;;5110535;28;19953;-71
2024/03/18 12:09:55;;;;;;;;;;;;;;;;;;5109407;28;19912;-75
2024/03/18 12:12:21;;;;;;;;;;;;;;;;;;5105847;28;19953;-75
2024/03/18 12:14:47;;;;;;;;;;;;;;;;;;5102263;28;19920;-76
2024/03/18 12:17:14;;;;;;;;;;;;;;;;;;5108440;28;19919;-71
2024/03/18 12:19:43;;;;;;;;;;;;;;;;;;5108127;28;19912;-73
2024/03/18 12:22:10;;;;;;;;;;;;;;;;;;5109671;28;19919;-74
2024/03/18 12:30:21;;;;;;;;;;;;;;;;;;5092818;28;19919;-69
2024/03/18 12:32:47;;;;;;;;;;;;;;;;;;5109670;28;19961;-69
2024/03/18 12:35:22;;;;;;;;;;;;;;;;;;5109318;28;19950;-70
2024/03/18 12:37:48;;;;;;;;;;;;;;;;;;5109820;28;19929;-69
2024/03/18 12:40:17;;;;;;;;;;;;;;;;;;5109710;28;20003;-69
2024/03/18 12:42:43;;;;;;;;;;;;;;;;;;5109176;28;20299;-72
2024/03/18 12:45:09;;;;;;;;;;;;;;;;;;5109089;28;19908;-72
2024/03/18 12:47:35;;;;;;;;;;;;;;;;;;5108862;28;19989;-70
2024/03/18 12:50:02;;;;;;;;;;;;;;;;;;5108797;28;20321;-71
2024/03/18 12:52:28;;;;;;;;;;;;;;;;;;5108478;28;19961;-70
2024/03/18 12:54:54;;;;;;;;;;;;;;;;;;5107627;28;19924;-72
2024/03/18 12:57:20;;;;;;;;;;;;;;;;;;5109036;28;20306;-72
2024/03/18 12:59:46;;;;;;;;;;;;;;;;;;5109701;28;19910;-71
2024/03/18 13:02:13;;;;;;;;;;;;;;;;;;5109934;28;19951;-73
2024/03/18 13:04:39;;;;;;;;;;;;;;;;;;5105224;28;20276;-69
2024/03/18 13:07:05;;;;;;;;;;;;;;;;;;5094401;28;19919;-73
2024/03/18 13:09:31;;;;;;;;;;;;;;;;;;5093704;28;19908;-69
2024/03/18 13:11:57;;;;;;;;;;;;;;;;;;5095543;28;20000;-69
2024/03/18 13:14:24;;;;;;;;;;;;;;;;;;5096091;28;20098;-70
2024/03/18 13:16:50;;;;;;;;;;;;;;;;;;5114198;28;19915;-71
2024/03/18 13:19:16;;;;;;;;;;;;;;;;;;5115575;28;19908;-68
2024/03/18 13:21:42;;;;;;;;;;;;;;;;;;5115757;28;19916;-71
2024/03/18 13:24:09;;;;;;;;;;;;;;;;;;5115810;28;20317;-70
2024/03/18 13:26:35;;;;;;;;;;;;;;;;;;5116058;28;19912;-72
2024/03/18 13:29:01;;;;;;;;;;;;;;;;;;5116170;28;19931;-72
2024/03/18 13:31:27;;;;;;;;;;;;;;;;;;5116026;28;19977;-69
2024/03/18 13:33:53;;;;;;;;;;;;;;;;;;5116198;28;19933;-72
2024/03/18 13:36:19;;;;;;;;;;;;;;;;;;5116371;28;19946;-70
2024/03/18 13:38:45;;;;;;;;;;;;;;;;;;5115870;28;19908;-71
2024/03/18 13:41:15;;;;;;;;;;;;;;;;;;5098563;28;19917;-71
2024/03/18 13:43:44;;;;;;;;;;;;;;;;;;5093961;28;19912;-70
2024/03/18 13:46:10;;;;;;;;;;;;;;;;;;5083077;28;20393;-71
2024/03/18 13:48:38;;;;;;;;;;;;;;;;;;5092739;28;19908;-68
2024/03/18 13:51:04;;;;;;;;;;;;;;;;;;5095295;28;19909;-72
2024/03/18 13:53:30;;;;;;;;;;;;;;;;;;5095294;28;19920;-72
2024/03/18 13:55:56;;;;;;;;;;;;;;;;;;5095860;28;19953;-71
2024/03/18 13:58:22;;;;;;;;;;;;;;;;;;5096015;28;19912;-72
2024/03/18 14:00:47;;;;;;;;;;;;;;;;;;5094063;28;20378;-72
2024/03/18 14:03:13;;;;;;;;;;;;;;;;;;5095325;28;20355;-73
2024/03/18 14:05:41;;;;;;;;;;;;;;;;;;5093766;28;19915;-73
2024/03/18 14:08:07;;;;;;;;;;;;;;;;;;5094594;28;20322;-73
2024/03/18 14:10:33;;;;;;;;;;;;;;;;;;5094166;28;19908;-73
2024/03/18 14:12:59;;;;;;;;;;;;;;;;;;5095774;28;19915;-73
2024/03/18 14:15:25;;;;;;;;;;;;;;;;;;5095042;28;19912;-72
2024/03/18 14:17:52;;;;;;;;;;;;;;;;;;5094443;28;19912;-73
2024/03/18 14:20:18;;;;;;;;;;;;;;;;;;5095009;28;19916;-73
2024/03/18 14:22:44;;;;;;;;;;;;;;;;;;5095397;28;19908;-73
2024/03/18 14:25:14;;;;;;;;;;;;;;;;;;5095265;28;19953;-73
2024/03/18 14:27:39;;;;;;;;;;;;;;;;;;5095112;28;19940;-73
2024/03/18 14:30:05;;;;;;;;;;;;;;;;;;5095243;28;19951;-73
2024/03/18 14:32:31;;;;;;;;;;;;;;;;;;5095154;28;19919;-73
2024/03/18 14:34:57;;;;;;;;;;;;;;;;;;5093291;28;19916;-73
2024/03/18 14:37:24;;;;;;;;;;;;;;;;;;5095142;28;19915;-73
2024/03/18 14:39:50;;;;;;;;;;;;;;;;;;5095107;28;20368;-73
2024/03/18 14:42:16;;;;;;;;;;;;;;;;;;5095099;28;19988;-73
2024/03/18 14:44:42;;;;;;;;;;;;;;;;;;5094800;28;19915;-73
2024/03/18 14:47:08;;;;;;;;;;;;;;;;;;5094946;28;19908;-73
2024/03/18 14:49:34;;;;;;;;;;;;;;;;;;5094403;28;19908;-73
2024/03/18 14:52:00;;;;;;;;;;;;;;;;;;5094714;28;19912;-72
2024/03/18 14:54:26;;;;;;;;;;;;;;;;;;5094331;28;19923;-72
2024/03/18 14:56:52;;;;;;;;;;;;;;;;;;5094387;28;20006;-73
2024/03/18 14:59:18;;;;;;;;;;;;;;;;;;5094602;28;19915;-73
2024/03/18 15:01:44;;;;;;;;;;;;;;;;;;5094692;28;19908;-72
2024/03/18 15:04:10;;;;;;;;;;;;;;;;;;5094266;28;20295;-73
2024/03/18 15:06:36;;;;;;;;;;;;;;;;;;5093300;28;20272;-73
2024/03/18 15:09:06;;;;;;;;;;;;;;;;;;5094780;28;19981;-74
2024/03/18 15:11:32;;;;;;;;;;;;;;;;;;5094242;28;19935;-74
2024/03/18 15:13:58;;;;;;;;;;;;;;;;;;5094423;28;20356;-73
2024/03/18 15:16:24;;;;;;;;;;;;;;;;;;5094476;28;19959;-74
2024/03/18 15:18:50;;;;;;;;;;;;;;;;;;5093989;28;20275;-73
2024/03/18 15:21:16;;;;;;;;;;;;;;;;;;5094355;28;19951;-73
2024/03/18 15:29:04;;;;;;;;;;;;;;;;;;5093969;28;20007;-73
2024/03/18 15:31:33;;;;;;;;;;;;;;;;;;5093788;28;19939;-73
2024/03/18 15:33:59;;;;;;;;;;;;;;;;;;5093909;28;20383;-74
2024/03/18 15:36:25;;;;;;;;;;;;;;;;;;5094074;28;19934;-74
2024/03/18 15:38:51;;;;;;;;;;;;;;;;;;5093720;28;19974;-73
2024/03/18 15:41:17;;;;;;;;;;;;;;;;;;5092775;28;19908;-73
2024/03/18 15:43:43;;;;;;;;;;;;;;;;;;5093954;28;19955;-72
2024/03/18 15:46:09;;;;;;;;;;;;;;;;;;5092366;28;19934;-76
2024/03/18 15:48:35;;;;;;;;;;;;;;;;;;5093905;28;19908;-73
2024/03/18 15:51:01;;;;;;;;;;;;;;;;;;5093908;28;19908;-73
2024/03/18 15:53:29;;;;;;;;;;;;;;;;;;5093305;28;19920;-73
2024/03/18 15:55:55;;;;;;;;;;;;;;;;;;5093895;28;19960;-73
2024/03/18 15:58:21;;;;;;;;;;;;;;;;;;5093802;28;19908;-69
2024/03/18 16:00:49;;;;;;;;;;;;;;;;;;5093340;28;19923;-73
2024/03/18 16:03:17;;;;;;;;;;;;;;;;;;5093761;28;20005;-73
2024/03/18 16:05:43;;;;;;;;;;;;;;;;;;5093632;28;20280;-72
2024/03/18 16:08:09;;;;;;;;;;;;;;;;;;5093442;28;19908;-73
2024/03/18 16:10:35;;;;;;;;;;;;;;;;;;5092272;28;20340;-73
2024/03/18 16:15:33;;;;;;;;;;;;;;;;;;5091667;27;19913;-72
2024/03/18 16:17:59;;;;;;;;;;;;;;;;;;5091281;28;20003;-72
2024/03/18 16:20:26;;;;;;;;;;;;;;;;;;5090761;28;19995;-72
2024/03/18 16:22:52;;;;;;;;;;;;;;;;;;5089938;28;19936;-72
2024/03/18 16:25:18;;;;;;;;;;;;;;;;;;5089926;28;19952;-73
2024/03/18 16:28:38;;;;;;;;;;;;;;;;;;5090973;27;19912;-72
2024/03/18 16:31:05;;;;;;;;;;;;;;;;;;5090060;28;20354;-72
2024/03/18 16:33:31;;;;;;;;;;;;;;;;;;5091344;28;19912;-72
2024/03/18 16:37:13;;;;;;;;;;;;;;;;;;5152913;27;19983;-73
2024/03/18 16:43:18;;;;;;;;;;;;;;;;;;5111597;27;19912;-73
2024/03/18 16:48:10;;;;;;;;;;;;;;;;;;5071547;28;19915;-72
2024/03/18 16:50:36;;;;;;;;;;;;;;;;;;5071217;28;20426;-72
2024/03/18 16:53:02;;;;;;;;;;;;;;;;;;5071140;28;19913;-72
2024/03/18 16:55:28;;;;;;;;;;;;;;;;;;5070840;28;19913;-72
2024/03/18 16:57:56;;;;;;;;;;;;;;;;;;5086668;28;19909;-72
2024/03/18 17:00:26;;;;;;;;;;;;;;;;;;5071277;28;19915;-72
2024/03/18 17:02:52;;;;;;;;;;;;;;;;;;5070614;28;19916;-72
2024/03/18 17:05:18;;;;;;;;;;;;;;;;;;5070685;28;20296;-72
2024/03/18 17:07:44;;;;;;;;;;;;;;;;;;5069899;28;19916;-74
2024/03/18 17:10:12;;;;;;;;;;;;;;;;;;5085807;28;19909;-72
2024/03/18 17:12:38;;;;;;;;;;;;;;;;;;5071130;28;19916;-72
2024/03/18 17:15:04;;;;;;;;;;;;;;;;;;5070668;28;19993;-73
2024/03/18 17:17:30;;;;;;;;;;;;;;;;;;5070397;28;19909;-71
2024/03/18 17:19:56;;;;;;;;;;;;;;;;;;5086104;28;19909;-72
2024/03/18 17:22:22;;;;;;;;;;;;;;;;;;5070546;28;19944;-73
2024/03/18 17:24:48;;;;;;;;;;;;;;;;;;5070014;28;20388;-72
2024/03/18 17:27:14;;;;;;;;;;;;;;;;;;5085947;28;19917;-73
2024/03/18 17:29:40;;;;;;;;;;;;;;;;;;5070270;28;19909;-73
2024/03/18 17:32:06;;;;;;;;;;;;;;;;;;5069971;28;19908;-73
2024/03/18 17:35:30;;;;;;;;;;;;;;;;;;5071285;28;19919;-71
2024/03/18 17:37:56;;;;;;;;;;;;;;;;;;5070765;28;20387;-72
2024/03/18 17:40:22;;;;;;;;;;;;;;;;;;5071411;28;19913;-74
2024/03/18 17:42:48;;;;;;;;;;;;;;;;;;5071062;28;20360;-72
2024/03/18 17:45:14;;;;;;;;;;;;;;;;;;5070543;28;19909;-72
2024/03/18 17:47:40;;;;;;;;;;;;;;;;;;5071051;28;19958;-72
2024/03/18 17:50:06;;;;;;;;;;;;;;;;;;5070892;28;19954;-72
2024/03/18 17:52:32;;;;;;;;;;;;;;;;;;5070606;28;19909;-72
2024/03/18 17:56:25;;;;;;;;;;;;;;;;;;5091546;27;19917;-72
2024/03/18 18:02:56;;;;;;;;;;;;;;;;;;5091896;27;19916;-71
2024/03/18 18:07:42;;;;;;;;;;;;;;;;;;5091151;27;19916;-72
2024/03/18 18:10:08;;;;;;;;;;;;;;;;;;5091112;28;19912;-72
2024/03/18 18:12:34;;;;;;;;;;;;;;;;;;5089534;28;20390;-72